Time;durP1;ratioP1;P1;durP2;ratioP2;P2;SDS_P1;SDS_P2;PMS_P1;PMS_P2;Temp;Humidity;BMP_temperature;BMP_pressure;BME280_temperature;BME280_humidity;BME280_pressure;Samples;Min_cycle;Max_cycle;Signal;HPM_P1;HPM_P2
2023/09/16 00:01:09;;;;;;;1.85;1.08;;;18.30;71.40;;;;;;5066861;28;20035;-70
2023/09/16 00:03:35;;;;;;;0.60;0.60;;;18.30;71.50;;;;;;5070089;28;20110;-70
2023/09/16 00:06:01;;;;;;;0.90;0.90;;;18.30;71.60;;;;;;5069582;28;20060;-67
2023/09/16 00:08:27;;;;;;;2.20;1.00;;;18.30;71.60;;;;;;5067496;28;20525;-67
2023/09/16 00:10:53;;;;;;;1.63;1.20;;;18.30;71.60;;;;;;5052329;28;20060;-70
2023/09/16 00:13:19;;;;;;;1.10;0.90;;;18.30;71.70;;;;;;5069055;28;20041;-70
2023/09/16 00:15:48;;;;;;;1.15;0.88;;;18.30;71.70;;;;;;5067650;28;20111;-70
2023/09/16 00:18:18;;;;;;;1.48;1.20;;;18.30;71.80;;;;;;5065181;28;20079;-70
2023/09/16 00:20:44;;;;;;;1.33;1.00;;;18.30;71.90;;;;;;5069660;28;20083;-70
2023/09/16 00:23:10;;;;;;;0.88;0.70;;;18.20;72.00;;;;;;5050781;28;20048;-67
2023/09/16 00:25:36;;;;;;;1.40;0.95;;;18.30;72.20;;;;;;5066166;28;20064;-67
2023/09/16 00:28:06;;;;;;;1.13;0.70;;;18.30;72.20;;;;;;5069010;28;20028;-70
2023/09/16 00:30:32;;;;;;;1.52;0.93;;;18.20;72.10;;;;;;5066819;28;20039;-69
2023/09/16 00:32:58;;;;;;;2.70;0.90;;;18.30;72.30;;;;;;5068678;28;20024;-70
2023/09/16 00:35:24;;;;;;;1.23;1.10;;;18.30;72.30;;;;;;5070106;28;20043;-70
2023/09/16 00:37:49;;;;;;;0.95;0.90;;;18.20;72.20;;;;;;5062527;28;20539;-67
2023/09/16 00:40:15;;;;;;;0.57;0.57;;;18.20;72.30;;;;;;5069943;28;20510;-67
2023/09/16 00:42:41;;;;;;;1.75;1.17;;;18.20;72.30;;;;;;5066218;28;20039;-70
2023/09/16 00:45:10;;;;;;;0.80;0.80;;;18.20;72.30;;;;;;5063439;28;20058;-70
2023/09/16 00:47:36;;;;;;;1.10;1.00;;;18.20;72.40;;;;;;5035602;28;20123;-70
2023/09/16 00:50:07;;;;;;;2.28;1.30;;;18.20;72.50;;;;;;5067134;28;20082;-70
2023/09/16 00:52:35;;;;;;;1.05;1.00;;;18.20;72.60;;;;;;5044835;28;20561;-70
2023/09/16 00:55:01;;;;;;;1.83;1.20;;;18.20;72.70;;;;;;5065505;28;20025;-70
2023/09/16 00:57:29;;;;;;;1.30;1.20;;;18.20;72.70;;;;;;5046123;28;20040;-70
2023/09/16 00:59:55;;;;;;;1.77;1.05;;;18.20;72.80;;;;;;5069106;28;20438;-70
2023/09/16 01:02:21;;;;;;;1.77;1.20;;;18.20;72.90;;;;;;5064327;28;20121;-70
2023/09/16 01:04:47;;;;;;;1.20;0.95;;;18.20;73.00;;;;;;5065706;28;20040;-70
2023/09/16 01:07:14;;;;;;;1.42;1.20;;;18.20;73.00;;;;;;5068134;28;20086;-70
2023/09/16 01:09:41;;;;;;;1.80;1.00;;;18.20;73.10;;;;;;5044219;28;20033;-70
2023/09/16 01:12:10;;;;;;;1.08;0.90;;;18.20;73.10;;;;;;5060436;28;20033;-70
2023/09/16 01:14:37;;;;;;;0.90;0.80;;;18.20;73.20;;;;;;5046466;28;20052;-70
2023/09/16 01:17:15;;;;;;;1.65;1.20;;;18.20;73.20;;;;;;5043985;28;20021;-70
2023/09/16 01:19:59;;;;;;;1.95;1.25;;;18.20;73.20;;;;;;5062763;28;20395;-70
2023/09/16 01:22:25;;;;;;;1.33;1.05;;;18.20;73.30;;;;;;5043069;28;20496;-70
2023/09/16 01:25:07;;;;;;;1.45;1.30;;;18.20;73.40;;;;;;5059247;28;20059;-70
2023/09/16 01:27:34;;;;;;;;;;;18.20;73.40;;;;;;5058134;28;20073;-66
2023/09/16 01:29:59;;;;;;;0.88;0.70;;;18.20;73.50;;;;;;5064609;28;19970;-66
2023/09/16 01:32:50;;;;;;;1.40;1.10;;;18.10;73.60;;;;;;5058936;28;20113;-67
2023/09/16 01:35:18;;;;;;;2.08;1.48;;;18.20;73.40;;;;;;5064050;28;20078;-70
2023/09/16 01:37:46;;;;;;;1.63;0.85;;;18.20;73.70;;;;;;5063473;28;20051;-70
2023/09/16 01:40:14;;;;;;;0.98;0.80;;;18.10;73.60;;;;;;5062116;28;20044;-70
2023/09/16 01:42:41;;;;;;;2.85;1.50;;;18.10;73.70;;;;;;5067857;28;20045;-70
2023/09/16 01:45:10;;;;;;;1.10;1.02;;;18.10;73.70;;;;;;5044171;28;20025;-70
2023/09/16 01:47:36;;;;;;;1.50;1.02;;;18.10;73.80;;;;;;5065505;28;20078;-70
2023/09/16 01:50:02;;;;;;;5.35;1.25;;;18.10;73.80;;;;;;5065203;28;20028;-70
2023/09/16 01:52:28;;;;;;;1.85;1.30;;;18.10;73.80;;;;;;5042855;28;20033;-70
2023/09/16 01:54:53;;;;;;;1.10;0.90;;;18.00;73.70;;;;;;5064008;28;20475;-70
2023/09/16 01:57:19;;;;;;;1.50;1.20;;;18.00;73.70;;;;;;5062792;28;20033;-69
2023/09/16 01:59:45;;;;;;;1.63;1.00;;;18.00;73.70;;;;;;5062696;28;20111;-67
2023/09/16 02:02:11;;;;;;;2.00;1.02;;;17.90;74.00;;;;;;5066769;28;20028;-67
2023/09/16 02:04:38;;;;;;;1.10;1.00;;;17.90;73.80;;;;;;5048521;28;20041;-67
2023/09/16 02:07:04;;;;;;;3.20;1.20;;;17.90;73.90;;;;;;5060042;28;20029;-66
2023/09/16 02:09:30;;;;;;;2.42;1.15;;;17.80;73.90;;;;;;5066420;28;20434;-69
2023/09/16 02:11:55;;;;;;;1.70;0.98;;;17.80;73.90;;;;;;5061210;28;20037;-70
2023/09/16 02:14:21;;;;;;;1.90;1.20;;;17.80;74.00;;;;;;5067291;28;20028;-67
2023/09/16 02:16:47;;;;;;;2.15;1.25;;;17.80;74.00;;;;;;5044896;28;20107;-67
2023/09/16 02:19:13;;;;;;;2.75;1.15;;;17.80;74.00;;;;;;5065497;28;20032;-70
2023/09/16 02:21:38;;;;;;;1.52;0.90;;;17.80;74.10;;;;;;5041312;28;20028;-67
2023/09/16 02:24:04;;;;;;;1.67;1.42;;;17.70;74.00;;;;;;5066460;28;20032;-67
2023/09/16 02:26:30;;;;;;;1.10;1.00;;;17.70;74.10;;;;;;5067331;28;20103;-67
2023/09/16 02:28:56;;;;;;;1.40;1.20;;;17.70;74.20;;;;;;5066095;28;20041;-67
2023/09/16 02:31:26;;;;;;;2.47;1.40;;;17.70;74.20;;;;;;5047107;28;20032;-67
2023/09/16 02:33:55;;;;;;;1.58;1.30;;;17.70;74.20;;;;;;5065733;28;20020;-70
2023/09/16 02:36:20;;;;;;;1.40;1.05;;;17.60;74.20;;;;;;5048752;28;20021;-70
2023/09/16 02:38:48;;;;;;;1.52;1.30;;;17.60;74.20;;;;;;5067264;28;20369;-70
2023/09/16 02:41:17;;;;;;;2.80;1.40;;;17.60;74.20;;;;;;5068303;28;20463;-70
2023/09/16 02:43:43;;;;;;;2.03;1.38;;;17.60;74.10;;;;;;5065497;28;20029;-70
2023/09/16 02:46:09;;;;;;;1.90;1.40;;;17.50;74.10;;;;;;5047619;28;20021;-67
2023/09/16 02:48:35;;;;;;;2.20;1.42;;;17.50;74.20;;;;;;5049210;28;20052;-67
2023/09/16 02:51:02;;;;;;;2.72;1.60;;;17.50;74.50;;;;;;5060934;28;20591;-67
2023/09/16 02:53:29;;;;;;;2.47;1.27;;;17.50;74.50;;;;;;5048384;28;20025;-66
2023/09/16 02:55:55;;;;;;;3.53;1.33;;;17.50;74.50;;;;;;5066297;28;20051;-66
2023/09/16 02:58:20;;;;;;;1.45;0.98;;;17.40;74.60;;;;;;5066840;28;20078;-67
2023/09/16 03:00:47;;;;;;;1.98;1.40;;;17.40;74.50;;;;;;5053504;28;20042;-67
2023/09/16 03:03:13;;;;;;;1.75;1.23;;;17.40;74.50;;;;;;5050773;28;20027;-67
2023/09/16 03:05:45;;;;;;;1.50;1.30;;;17.40;74.50;;;;;;5068078;28;20079;-67
2023/09/16 03:08:12;;;;;;;1.80;1.17;;;17.40;74.50;;;;;;5071977;28;20112;-67
2023/09/16 03:10:38;;;;;;;1.23;0.88;;;17.40;74.50;;;;;;5070627;28;20034;-67
2023/09/16 03:13:03;;;;;;;1.30;1.20;;;17.30;74.50;;;;;;5068439;28;20020;-67
2023/09/16 03:15:29;;;;;;;1.27;1.17;;;17.30;74.60;;;;;;5070840;28;20055;-67
2023/09/16 03:17:55;;;;;;;2.72;1.10;;;17.30;74.60;;;;;;5066758;28;20392;-67
2023/09/16 03:20:21;;;;;;;1.23;0.93;;;17.30;74.60;;;;;;5064406;28;20025;-67
2023/09/16 03:22:46;;;;;;;1.40;1.15;;;17.30;74.70;;;;;;5069292;28;20140;-70
2023/09/16 03:25:12;;;;;;;2.28;1.38;;;17.20;74.70;;;;;;5054126;28;20116;-67
2023/09/16 03:27:38;;;;;;;1.52;1.33;;;17.20;74.80;;;;;;5060559;28;20479;-67
2023/09/16 03:30:05;;;;;;;2.08;1.20;;;17.20;74.80;;;;;;5066711;28;20402;-67
2023/09/16 03:32:30;;;;;;;1.33;1.05;;;17.20;74.80;;;;;;5063867;28;20048;-66
2023/09/16 03:34:56;;;;;;;1.92;1.25;;;17.20;74.80;;;;;;5067246;28;20079;-67
2023/09/16 03:37:22;;;;;;;2.50;1.00;;;17.20;74.80;;;;;;5064950;28;20033;-67
2023/09/16 03:39:47;;;;;;;3.33;1.23;;;17.20;74.80;;;;;;5062204;28;20420;-67
2023/09/16 03:42:13;;;;;;;5.07;1.50;;;17.20;74.90;;;;;;5057135;28;20020;-67
2023/09/16 03:44:39;;;;;;;1.70;1.33;;;17.10;74.80;;;;;;5051686;28;20094;-67
2023/09/16 03:47:06;;;;;;;1.52;1.17;;;17.10;74.90;;;;;;5068581;28;20027;-67
2023/09/16 03:49:32;;;;;;;2.13;1.40;;;17.10;75.00;;;;;;5042719;28;20123;-67
2023/09/16 03:51:57;;;;;;;1.88;1.35;;;17.10;75.00;;;;;;5067241;28;20124;-67
2023/09/16 03:54:23;;;;;;;1.52;1.02;;;17.10;75.00;;;;;;5053577;28;20090;-67
2023/09/16 03:56:49;;;;;;;1.35;1.02;;;17.10;75.00;;;;;;5040343;28;20091;-67
2023/09/16 03:59:14;;;;;;;2.97;1.65;;;17.00;75.00;;;;;;5062503;28;20071;-67
2023/09/16 04:01:40;;;;;;;1.67;1.30;;;17.10;75.10;;;;;;5070641;28;20372;-67
2023/09/16 04:04:06;;;;;;;1.35;1.00;;;17.00;75.10;;;;;;5033378;28;20542;-70
2023/09/16 04:06:32;;;;;;;1.80;1.50;;;17.00;75.10;;;;;;5064727;28;20209;-70
2023/09/16 04:08:58;;;;;;;2.60;1.55;;;17.00;75.10;;;;;;5043135;28;20029;-70
2023/09/16 04:11:23;;;;;;;1.63;1.52;;;17.00;75.10;;;;;;5063758;28;20043;-70
2023/09/16 04:13:49;;;;;;;2.17;1.60;;;17.00;75.20;;;;;;5067466;28;20115;-70
2023/09/16 04:16:15;;;;;;;1.45;0.98;;;17.00;75.20;;;;;;5063250;28;20392;-67
2023/09/16 04:18:40;;;;;;;2.20;1.15;;;16.90;75.20;;;;;;5047617;28;20415;-67
2023/09/16 04:21:06;;;;;;;3.67;1.60;;;16.90;75.20;;;;;;5059597;28;20032;-67
2023/09/16 04:23:35;;;;;;;1.42;1.17;;;16.90;75.40;;;;;;5063510;28;20082;-67
2023/09/16 04:26:01;;;;;;;4.32;2.03;;;16.90;75.40;;;;;;5043318;28;20032;-66
2023/09/16 04:28:27;;;;;;;3.80;1.42;;;16.90;75.40;;;;;;5061705;28;20066;-67
2023/09/16 04:30:54;;;;;;;1.75;1.40;;;16.90;75.60;;;;;;5065622;28;20044;-66
2023/09/16 04:33:21;;;;;;;1.83;1.42;;;16.90;75.60;;;;;;5050360;28;20113;-67
2023/09/16 04:35:51;;;;;;;2.05;1.35;;;16.90;75.60;;;;;;5068024;28;20367;-67
2023/09/16 04:38:22;;;;;;;1.98;1.30;;;16.80;75.40;;;;;;5044900;28;20535;-67
2023/09/16 04:40:48;;;;;;;2.75;1.70;;;16.80;75.50;;;;;;5035017;28;20111;-67
2023/09/16 04:43:14;;;;;;;1.63;1.23;;;16.80;75.70;;;;;;5065804;28;20198;-70
2023/09/16 04:45:44;;;;;;;2.10;1.17;;;16.80;75.90;;;;;;5068592;28;20066;-70
2023/09/16 04:48:13;;;;;;;1.70;1.40;;;16.80;75.80;;;;;;5063222;28;20456;-67
2023/09/16 04:50:43;;;;;;;1.17;1.08;;;16.70;75.70;;;;;;5066789;28;20020;-67
2023/09/16 04:53:09;;;;;;;3.15;1.20;;;16.70;75.70;;;;;;5067804;28;20036;-67
2023/09/16 04:55:36;;;;;;;1.73;1.15;;;16.70;75.70;;;;;;5065057;28;20025;-70
2023/09/16 04:58:02;;;;;;;1.52;1.05;;;16.70;75.80;;;;;;5065411;28;20428;-70
2023/09/16 05:00:33;;;;;;;4.13;1.73;;;16.70;75.80;;;;;;5051983;28;20067;-70
2023/09/16 05:02:59;;;;;;;2.22;1.55;;;16.70;75.70;;;;;;5067877;28;20025;-70
2023/09/16 05:05:25;;;;;;;2.78;1.25;;;16.70;75.70;;;;;;5067653;28;20119;-70
2023/09/16 05:07:51;;;;;;;1.80;1.38;;;16.70;75.70;;;;;;5069308;28;20335;-67
2023/09/16 05:10:16;;;;;;;1.38;1.05;;;16.70;75.70;;;;;;5065206;28;20040;-70
2023/09/16 05:12:42;;;;;;;3.95;2.00;;;16.70;75.70;;;;;;5069263;28;20107;-70
2023/09/16 05:15:09;;;;;;;2.58;1.42;;;16.70;75.70;;;;;;5064595;28;20028;-70
2023/09/16 05:17:36;;;;;;;5.57;1.98;;;16.70;75.70;;;;;;5061644;28;20467;-70
2023/09/16 05:20:06;;;;;;;3.47;1.75;;;16.70;75.80;;;;;;5067399;28;20476;-67
2023/09/16 05:22:31;;;;;;;2.13;1.40;;;16.60;75.70;;;;;;5066215;28;20028;-67
2023/09/16 05:24:57;;;;;;;3.30;1.55;;;16.70;75.80;;;;;;5064744;28;20036;-67
2023/09/16 05:27:23;;;;;;;3.25;2.25;;;16.70;75.90;;;;;;5041860;28;20428;-67
2023/09/16 05:29:51;;;;;;;2.92;1.58;;;16.70;75.80;;;;;;5043952;28;20044;-67
2023/09/16 05:32:18;;;;;;;1.73;1.50;;;16.70;76.00;;;;;;5048699;28;20060;-67
2023/09/16 05:34:44;;;;;;;2.38;1.50;;;16.70;76.00;;;;;;5047961;28;20525;-67
2023/09/16 05:37:10;;;;;;;2.13;1.55;;;16.70;76.10;;;;;;5046488;28;20025;-67
2023/09/16 05:39:36;;;;;;;3.33;2.05;;;16.70;76.10;;;;;;5046302;28;20044;-67
2023/09/16 05:42:01;;;;;;;5.15;1.73;;;16.60;76.10;;;;;;5046227;28;20439;-67
2023/09/16 05:44:27;;;;;;;3.55;1.83;;;16.70;76.40;;;;;;5048621;28;20094;-67
2023/09/16 05:46:53;;;;;;;2.65;1.58;;;16.70;76.40;;;;;;5045960;28;20377;-67
2023/09/16 05:49:19;;;;;;;3.42;2.05;;;16.70;76.40;;;;;;5044617;28;20037;-68
2023/09/16 05:51:45;;;;;;;3.25;1.60;;;16.70;76.50;;;;;;5045573;28;20545;-67
2023/09/16 05:54:12;;;;;;;2.10;1.63;;;16.70;76.50;;;;;;5044746;28;20029;-67
2023/09/16 05:56:38;;;;;;;2.03;1.50;;;16.80;76.60;;;;;;5043468;28;20082;-67
2023/09/16 05:59:06;;;;;;;4.40;1.67;;;16.80;76.50;;;;;;5043655;28;20036;-67
2023/09/16 06:01:31;;;;;;;3.90;1.13;;;16.80;76.50;;;;;;5043497;28;20071;-70
2023/09/16 06:03:57;;;;;;;2.25;1.65;;;16.90;76.50;;;;;;5046865;28;20459;-70
2023/09/16 06:06:23;;;;;;;2.40;1.40;;;16.90;76.60;;;;;;5042537;28;20037;-67
2023/09/16 06:08:48;;;;;;;2.20;1.80;;;16.90;76.50;;;;;;5062316;28;20033;-67
2023/09/16 06:11:14;;;;;;;2.10;1.90;;;17.00;76.50;;;;;;5045727;28;20028;-67
2023/09/16 06:13:40;;;;;;;2.92;1.45;;;17.00;77.10;;;;;;5042074;28;20036;-67
2023/09/16 06:16:07;;;;;;;4.00;1.80;;;17.10;76.60;;;;;;5047422;28;20394;-67
2023/09/16 06:18:34;;;;;;;2.05;1.42;;;17.10;76.60;;;;;;5043709;28;20052;-67
2023/09/16 06:21:00;;;;;;;3.22;1.45;;;17.10;76.60;;;;;;5042330;28;20429;-70
2023/09/16 06:23:26;;;;;;;1.77;1.65;;;17.20;76.60;;;;;;5045870;28;20128;-70
2023/09/16 06:25:51;;;;;;;1.27;1.10;;;17.30;76.60;;;;;;5054001;28;20033;-70
2023/09/16 06:28:17;;;;;;;2.50;1.27;;;17.30;76.60;;;;;;5049489;28;20040;-70
2023/09/16 06:30:43;;;;;;;1.95;1.58;;;17.30;76.60;;;;;;5030918;28;20021;-70
2023/09/16 06:33:08;;;;;;;2.20;1.77;;;17.40;76.80;;;;;;5050359;28;20503;-70
2023/09/16 06:35:34;;;;;;;1.40;1.25;;;17.40;76.80;;;;;;5064922;28;20476;-70
2023/09/16 06:38:00;;;;;;;1.25;1.02;;;17.50;76.90;;;;;;5047763;28;20492;-70
2023/09/16 06:40:26;;;;;;;2.78;1.65;;;17.50;76.80;;;;;;5064555;28;20043;-70
2023/09/16 06:42:51;;;;;;;1.88;1.40;;;17.60;76.80;;;;;;5063770;28;20040;-70
2023/09/16 06:45:17;;;;;;;1.40;1.23;;;17.60;76.90;;;;;;5051702;28;20043;-70
2023/09/16 06:47:44;;;;;;;2.78;1.60;;;17.60;76.90;;;;;;5047629;28;20553;-70
2023/09/16 06:50:10;;;;;;;3.88;1.50;;;17.70;77.00;;;;;;5026821;28;20033;-70
2023/09/16 06:52:37;;;;;;;1.98;1.77;;;17.70;77.10;;;;;;5061342;28;20033;-70
2023/09/16 06:55:04;;;;;;;1.90;1.65;;;17.80;77.20;;;;;;5044510;28;20028;-70
2023/09/16 06:57:30;;;;;;;1.75;1.40;;;17.80;77.10;;;;;;5066120;28;20029;-70
2023/09/16 06:59:55;;;;;;;1.88;1.40;;;17.90;77.30;;;;;;5046096;28;20040;-70
2023/09/16 07:02:22;;;;;;;1.52;1.35;;;17.90;77.40;;;;;;5031857;28;20036;-70
2023/09/16 07:04:49;;;;;;;2.83;1.40;;;18.00;77.40;;;;;;5064256;28;20044;-70
2023/09/16 07:07:15;;;;;;;2.25;1.85;;;18.10;77.30;;;;;;5066325;28;20020;-70
2023/09/16 07:09:40;;;;;;;2.38;1.48;;;18.20;77.20;;;;;;5031477;28;20094;-70
2023/09/16 07:12:07;;;;;;;2.58;1.45;;;18.30;77.20;;;;;;5036824;28;20479;-70
2023/09/16 07:14:36;;;;;;;2.65;1.65;;;18.40;77.20;;;;;;5048148;28;20036;-69
2023/09/16 07:17:02;;;;;;;1.83;1.40;;;18.50;77.30;;;;;;5032366;28;20025;-69
2023/09/16 07:19:28;;;;;;;1.92;1.40;;;18.60;77.20;;;;;;5047573;28;20021;-70
2023/09/16 07:21:53;;;;;;;3.75;2.10;;;18.60;77.20;;;;;;5036782;28;20511;-69
2023/09/16 07:24:19;;;;;;;3.35;2.00;;;18.70;77.10;;;;;;5046291;28;20033;-70
2023/09/16 07:26:45;;;;;;;2.55;1.40;;;18.80;77.10;;;;;;5045367;28;20076;-70
2023/09/16 07:29:11;;;;;;;1.95;1.20;;;18.80;77.00;;;;;;5048875;28;20043;-70
2023/09/16 07:31:36;;;;;;;2.22;1.33;;;18.90;76.70;;;;;;5059129;28;20036;-70
2023/09/16 07:34:03;;;;;;;2.70;1.40;;;19.10;76.60;;;;;;5045991;28;21399;-71
2023/09/16 07:36:28;;;;;;;2.65;1.40;;;19.20;76.50;;;;;;5042311;28;20032;-72
2023/09/16 07:38:54;;;;;;;2.25;1.27;;;19.30;76.20;;;;;;5039696;28;20406;-71
2023/09/16 07:41:19;;;;;;;1.65;1.23;;;19.40;76.00;;;;;;5043842;28;20074;-71
2023/09/16 07:43:45;;;;;;;1.58;1.15;;;19.50;75.80;;;;;;5046920;28;20032;-72
2023/09/16 07:46:11;;;;;;;2.10;1.65;;;19.60;75.60;;;;;;5048599;28;20491;-70
2023/09/16 07:48:36;;;;;;;1.33;1.00;;;19.70;75.50;;;;;;5066209;28;20054;-71
2023/09/16 07:51:02;;;;;;;2.83;1.30;;;19.80;75.40;;;;;;5052551;28;20024;-70
2023/09/16 07:53:28;;;;;;;1.17;0.98;;;19.80;75.20;;;;;;5027597;28;20119;-69
2023/09/16 07:55:53;;;;;;;1.55;1.27;;;19.90;75.10;;;;;;5062791;28;20124;-69
2023/09/16 07:58:19;;;;;;;2.22;1.23;;;20.00;75.00;;;;;;5064579;28;20093;-70
2023/09/16 08:00:45;;;;;;;1.02;0.93;;;20.00;74.80;;;;;;5029978;28;20037;-68
2023/09/16 08:03:10;;;;;;;1.40;1.00;;;20.10;74.80;;;;;;5030654;28;20107;-67
2023/09/16 08:05:36;;;;;;;1.48;1.35;;;20.10;74.70;;;;;;5046831;28;20051;-67
2023/09/16 08:08:03;;;;;;;1.40;1.20;;;20.20;74.70;;;;;;5033382;28;20059;-67
2023/09/16 08:10:29;;;;;;;1.65;1.10;;;20.30;74.60;;;;;;5064855;28;20513;-66
2023/09/16 08:12:54;;;;;;;4.00;1.50;;;20.40;74.20;;;;;;5068338;28;20111;-67
2023/09/16 08:15:20;;;;;;;1.52;1.40;;;20.50;74.00;;;;;;5050643;28;20123;-67
2023/09/16 08:17:46;;;;;;;1.15;1.05;;;20.70;73.70;;;;;;5068324;28;20040;-67
2023/09/16 08:20:12;;;;;;;1.50;1.35;;;20.80;73.30;;;;;;5038087;28;20021;-67
2023/09/16 08:22:38;;;;;;;1.75;1.20;;;21.00;73.00;;;;;;5061895;28;20382;-68
2023/09/16 08:25:04;;;;;;;1.52;1.00;;;21.10;72.80;;;;;;5049124;28;20020;-69
2023/09/16 08:27:30;;;;;;;2.42;1.33;;;21.20;72.60;;;;;;5061305;28;20115;-69
2023/09/16 08:29:56;;;;;;;1.67;1.23;;;21.40;72.60;;;;;;5042693;28;20423;-69
2023/09/16 08:32:24;;;;;;;1.92;1.42;;;21.50;72.50;;;;;;5065729;28;20112;-69
2023/09/16 08:34:50;;;;;;;1.65;1.10;;;21.60;72.30;;;;;;5066667;28;20036;-69
2023/09/16 08:37:16;;;;;;;1.23;1.08;;;21.70;72.00;;;;;;5068904;28;20388;-69
2023/09/16 08:39:43;;;;;;;1.48;1.10;;;21.90;71.90;;;;;;5068365;28;20027;-69
2023/09/16 08:42:28;;;;;;;2.08;1.20;;;22.00;71.70;;;;;;5063221;28;20115;-69
2023/09/16 08:44:57;;;;;;;1.63;0.80;;;22.10;71.60;;;;;;5066142;28;20033;-69
2023/09/16 08:47:39;;;;;;;1.88;1.10;;;22.20;71.50;;;;;;5059861;28;20483;-69
2023/09/16 08:50:10;;;;;;;1.70;1.33;;;22.20;71.30;;;;;;5068745;28;20495;-69
2023/09/16 08:52:48;;;;;;;2.03;1.52;;;22.30;71.30;;;;;;5063662;28;20039;-69
2023/09/16 08:55:15;;;;;;;4.13;1.23;;;22.40;71.20;;;;;;5027029;28;20070;-69
2023/09/16 08:57:57;;;;;;;1.33;1.10;;;22.50;71.00;;;;;;5063147;28;20035;-69
2023/09/16 09:00:23;;;;;;;1.42;1.05;;;22.60;70.60;;;;;;5059892;28;20032;-69
2023/09/16 09:02:50;;;;;;;2.80;1.00;;;22.70;70.30;;;;;;5067014;28;20020;-71
2023/09/16 09:05:17;;;;;;;4.05;1.15;;;22.80;70.00;;;;;;5052757;28;20519;-68
2023/09/16 09:07:43;;;;;;;1.30;1.17;;;22.90;69.80;;;;;;5065918;28;20024;-67
2023/09/16 09:10:12;;;;;;;1.52;1.42;;;23.00;69.40;;;;;;5063798;28;20059;-70
2023/09/16 09:12:41;;;;;;;1.33;1.20;;;23.10;68.90;;;;;;5042678;28;20036;-67
2023/09/16 09:15:13;;;;;;;1.55;1.15;;;23.20;68.50;;;;;;5050074;28;20035;-68
2023/09/16 09:17:43;;;;;;;1.20;0.90;;;23.30;68.50;;;;;;5050100;28;20035;-68
2023/09/16 09:20:18;;;;;;;1.58;1.20;;;23.40;68.20;;;;;;5060841;28;20091;-69
2023/09/16 09:22:44;;;;;;;2.47;1.45;;;23.50;68.00;;;;;;5049035;28;20111;-66
2023/09/16 09:25:10;;;;;;;1.95;1.40;;;23.70;67.80;;;;;;5027773;28;20029;-67
2023/09/16 09:27:36;;;;;;;2.17;1.27;;;23.80;67.00;;;;;;5028550;28;20580;-66
2023/09/16 09:30:04;;;;;;;1.73;1.02;;;24.00;66.70;;;;;;5066780;28;20036;-68
2023/09/16 09:32:31;;;;;;;2.05;0.90;;;24.00;66.60;;;;;;5061454;28;20037;-69
2023/09/16 09:34:58;;;;;;;1.20;0.93;;;24.20;66.40;;;;;;5062095;28;20036;-67
2023/09/16 09:37:24;;;;;;;1.05;0.90;;;24.30;66.10;;;;;;5050440;28;20453;-68
2023/09/16 09:40:12;;;;;;;1.20;0.82;;;24.40;66.10;;;;;;5064497;28;20033;-69
2023/09/16 09:42:49;;;;;;;3.35;0.70;;;24.50;65.70;;;;;;5046422;28;20063;-68
2023/09/16 09:45:18;;;;;;;1.73;1.27;;;24.70;65.50;;;;;;5058244;28;20033;-68
2023/09/16 09:47:45;;;;;;;1.20;1.00;;;24.80;65.30;;;;;;5064762;28;20361;-67
2023/09/16 09:50:16;;;;;;;1.80;1.25;;;24.90;65.00;;;;;;5042536;28;20039;-68
2023/09/16 09:52:56;;;;;;;1.08;0.98;;;25.10;64.70;;;;;;5065910;28;20343;-68
2023/09/16 09:55:27;;;;;;;4.72;1.10;;;25.20;64.30;;;;;;5056729;28;20035;-67
2023/09/16 09:57:53;;;;;;;1.67;1.00;;;25.30;63.50;;;;;;5063589;28;20480;-68
2023/09/16 10:00:21;;;;;;;1.25;1.00;;;25.30;63.40;;;;;;5031802;28;20031;-69
2023/09/16 10:02:47;;;;;;;1.00;0.73;;;25.40;63.10;;;;;;5066457;28;20418;-68
2023/09/16 10:05:21;;;;;;;1.33;1.20;;;25.60;63.10;;;;;;5059869;28;20379;-68
2023/09/16 10:07:48;;;;;;;1.15;1.00;;;25.70;62.80;;;;;;5064666;28;20456;-68
2023/09/16 10:10:21;;;;;;;1.30;0.95;;;25.80;62.60;;;;;;5067257;28;20024;-68
2023/09/16 10:12:48;;;;;;;1.05;0.80;;;25.90;62.10;;;;;;5063774;28;20033;-68
2023/09/16 10:15:14;;;;;;;1.77;1.30;;;26.00;62.50;;;;;;5065167;28;20028;-67
2023/09/16 10:17:48;;;;;;;2.17;1.17;;;26.20;61.10;;;;;;5059815;28;20040;-67
2023/09/16 10:20:16;;;;;;;1.05;0.90;;;26.40;60.90;;;;;;5049966;28;20061;-67
2023/09/16 10:22:43;;;;;;;1.10;1.00;;;26.40;60.50;;;;;;5064162;28;20120;-67
2023/09/16 10:25:12;;;;;;;2.92;1.73;;;26.60;60.40;;;;;;5064111;28;20024;-68
2023/09/16 10:28:00;;;;;;;1.02;0.70;;;26.80;60.40;;;;;;5043410;28;20501;-68
2023/09/16 10:30:27;;;;;;;1.38;1.10;;;27.00;60.20;;;;;;5024566;28;20017;-67
2023/09/16 10:32:53;;;;;;;1.77;1.15;;;27.20;59.90;;;;;;5023500;28;20026;-68
2023/09/16 10:35:20;;;;;;;1.63;1.27;;;27.30;59.40;;;;;;5021279;28;20052;-66
2023/09/16 10:37:51;;;;;;;1.02;0.80;;;27.50;58.90;;;;;;5027378;28;20547;-67
2023/09/16 10:40:19;;;;;;;0.93;0.70;;;27.60;58.50;;;;;;5022361;28;20084;-67
2023/09/16 10:42:46;;;;;;;0.80;0.80;;;27.70;57.70;;;;;;5023972;28;20057;-67
2023/09/16 10:45:15;;;;;;;1.55;1.15;;;27.80;57.60;;;;;;5025811;28;20527;-66
2023/09/16 10:47:41;;;;;;;1.45;0.68;;;28.00;56.80;;;;;;5019086;28;20049;-74
2023/09/16 10:50:07;;;;;;;1.00;0.80;;;28.20;56.70;;;;;;5020696;28;20120;-67
2023/09/16 10:52:38;;;;;;;0.80;0.80;;;28.30;54.70;;;;;;5022273;28;20041;-68
2023/09/16 10:55:15;;;;;;;0.50;0.50;;;28.30;54.60;;;;;;5020582;28;20489;-67
2023/09/16 10:57:48;;;;;;;0.75;0.70;;;28.40;54.60;;;;;;5024383;28;20102;-67
2023/09/16 11:00:20;;;;;;;0.77;0.60;;;28.40;53.80;;;;;;5025090;28;20116;-67
2023/09/16 11:03:15;;;;;;;0.73;0.68;;;28.60;54.00;;;;;;5021450;28;20014;-68
2023/09/16 11:05:41;;;;;;;0.77;0.52;;;28.80;54.10;;;;;;5018525;28;20045;-68
2023/09/16 11:08:07;;;;;;;0.90;0.65;;;28.90;53.70;;;;;;5026253;28;20037;-68
2023/09/16 11:10:34;;;;;;;0.68;0.68;;;29.10;53.50;;;;;;5022322;28;20044;-69
2023/09/16 11:13:01;;;;;;;0.77;0.63;;;29.10;52.80;;;;;;5023478;28;20018;-69
2023/09/16 11:15:32;;;;;;;0.57;0.55;;;29.20;52.30;;;;;;5015956;28;20647;-69
2023/09/16 11:18:07;;;;;;;1.03;0.73;;;29.20;52.50;;;;;;5028805;28;20036;-66
2023/09/16 11:20:36;;;;;;;0.93;0.90;;;29.30;52.10;;;;;;5038752;28;20972;-68
2023/09/16 11:23:03;;;;;;;1.45;0.80;;;29.30;51.90;;;;;;5026547;28;20075;-66
2023/09/16 11:25:34;;;;;;;1.05;0.95;;;29.40;51.80;;;;;;5027449;28;20093;-68
2023/09/16 11:28:18;;;;;;;0.77;0.77;;;29.50;51.20;;;;;;5054750;28;20040;-67
2023/09/16 11:30:58;;;;;;;0.70;0.70;;;29.60;51.40;;;;;;5050127;28;20040;-67
2023/09/16 11:33:29;;;;;;;0.73;0.73;;;29.70;51.40;;;;;;5067432;28;20082;-66
2023/09/16 11:36:11;;;;;;;0.95;0.90;;;29.80;51.40;;;;;;5051930;28;20036;-64
2023/09/16 11:38:53;;;;;;;0.68;0.68;;;29.90;51.30;;;;;;5063474;28;20035;-65
2023/09/16 11:41:19;;;;;;;;;;;30.00;50.10;;;;;;5066823;28;20124;-64
2023/09/16 11:43:45;;;;;;;0.80;0.80;;;30.10;50.20;;;;;;5068237;28;19918;-66
2023/09/16 11:46:12;;;;;;;0.90;0.90;;;30.20;50.50;;;;;;5046430;28;20040;-70
2023/09/16 11:48:52;;;;;;;1.50;0.80;;;30.30;50.10;;;;;;5067106;28;20117;-67
2023/09/16 11:51:18;;;;;;;1.02;0.93;;;30.40;50.40;;;;;;5069464;28;20137;-66
2023/09/16 11:53:45;;;;;;;1.30;0.80;;;30.50;50.30;;;;;;5064362;28;20139;-70
2023/09/16 11:56:12;;;;;;;1.17;1.08;;;30.60;50.30;;;;;;5048363;28;20028;-68
2023/09/16 11:58:40;;;;;;;1.33;1.00;;;30.60;49.90;;;;;;5068153;28;20024;-73
2023/09/16 12:01:06;;;;;;;1.45;0.80;;;30.60;49.90;;;;;;5066257;28;20479;-70
2023/09/16 12:03:32;;;;;;;1.00;0.60;;;30.70;49.90;;;;;;5057477;28;20078;-66
2023/09/16 12:05:58;;;;;;;0.95;0.90;;;30.60;50.00;;;;;;5060110;28;20352;-67
2023/09/16 12:08:23;;;;;;;0.98;0.80;;;30.50;50.20;;;;;;5046307;28;20025;-67
2023/09/16 12:10:51;;;;;;;0.75;0.75;;;30.40;50.50;;;;;;5069575;28;20031;-67
2023/09/16 12:13:31;;;;;;;1.13;0.88;;;30.40;50.70;;;;;;5067355;28;20079;-67
2023/09/16 12:15:58;;;;;;;2.13;0.93;;;30.50;51.20;;;;;;5065194;28;20032;-67
2023/09/16 12:18:24;;;;;;;1.02;1.02;;;30.60;50.10;;;;;;5069915;28;20024;-67
2023/09/16 12:20:52;;;;;;;1.08;0.93;;;30.80;49.90;;;;;;5062141;28;20031;-66
2023/09/16 12:23:18;;;;;;;0.70;0.70;;;30.90;49.80;;;;;;5062654;28;20024;-67
2023/09/16 12:25:45;;;;;;;1.05;1.05;;;31.00;49.40;;;;;;5065163;28;20040;-67
2023/09/16 12:28:22;;;;;;;3.00;1.02;;;31.10;49.70;;;;;;5053322;28;20045;-67
2023/09/16 12:30:51;;;;;;;1.38;1.25;;;31.10;48.90;;;;;;5065222;28;20264;-67
2023/09/16 12:33:21;;;;;;;1.05;0.70;;;31.30;49.60;;;;;;5063444;28;20270;-67
2023/09/16 12:35:47;;;;;;;0.82;0.77;;;31.30;48.90;;;;;;5057618;28;20040;-67
2023/09/16 12:38:17;;;;;;;0.70;0.70;;;31.40;48.60;;;;;;5063847;28;20483;-66
2023/09/16 12:40:45;;;;;;;1.23;0.90;;;31.50;48.70;;;;;;5065623;28;20024;-66
2023/09/16 12:43:11;;;;;;;0.80;0.80;;;31.60;48.10;;;;;;5066960;28;20025;-67
2023/09/16 12:45:38;;;;;;;1.02;0.98;;;31.50;48.10;;;;;;5063560;28;20060;-67
2023/09/16 12:48:05;;;;;;;0.80;0.77;;;31.60;48.30;;;;;;5062116;28;20386;-67
2023/09/16 12:50:32;;;;;;;0.90;0.80;;;31.70;48.10;;;;;;5061757;28;20135;-67